Time;durP1;ratioP1;P1;durP2;ratioP2;P2;SDS_P1;SDS_P2;PMS_P1;PMS_P2;Temp;Humidity;BMP_temperature;BMP_pressure;BME280_temperature;BME280_humidity;BME280_pressure;Samples;Min_cycle;Max_cycle;Signal;HPM_P1;HPM_P2
2021/04/30 00:00:39;;;;;;;7.60;5.53;;;;;;;5.10;79.59;98331.88;5080791;28;20048;-71
2021/04/30 00:03:04;;;;;;;9.48;5.40;;;;;;;5.19;78.64;98320.91;5072941;28;20028;-72
2021/04/30 00:05:31;;;;;;;8.73;5.13;;;;;;;5.20;78.73;98335.97;5089226;28;20020;-71
2021/04/30 00:07:57;;;;;;;9.15;5.60;;;;;;;5.34;78.87;98337.03;5082461;28;20474;-72
2021/04/30 00:10:23;;;;;;;9.13;5.00;;;;;;;5.43;79.04;98327.06;5087139;28;20028;-71
2021/04/30 00:12:49;;;;;;;7.57;4.93;;;;;;;5.26;78.81;98323.69;5083343;28;20036;-71
2021/04/30 00:15:15;;;;;;;7.93;5.03;;;;;;;5.18;79.48;98332.63;5071281;28;20029;-71
2021/04/30 00:17:40;;;;;;;7.65;5.03;;;;;;;4.99;79.57;98317.88;5099031;22;20118;-72
2021/04/30 00:20:06;;;;;;;5.80;4.40;;;;;;;4.79;80.34;98316.69;5092416;28;20032;-72
2021/04/30 00:22:32;;;;;;;7.57;5.53;;;;;;;4.76;80.89;98333.97;5076195;28;20039;-73
2021/04/30 00:24:57;;;;;;;8.23;4.97;;;;;;;4.64;81.29;98329.19;5101971;28;20024;-72
2021/04/30 00:27:22;;;;;;;7.43;4.40;;;;;;;4.49;81.46;98316.56;5073761;28;20034;-72
2021/04/30 00:29:48;;;;;;;7.35;4.47;;;;;;;4.55;81.58;98331.09;5079789;28;20115;-72
2021/04/30 00:32:13;;;;;;;7.82;4.75;;;;;;;4.51;81.73;98324.44;5072394;28;20099;-72
2021/04/30 00:34:40;;;;;;;6.00;4.07;;;;;;;4.48;81.02;98327.44;5072108;28;20024;-72
2021/04/30 00:37:05;;;;;;;6.82;4.35;;;;;;;4.59;81.22;98325.22;5071776;28;20116;-73
2021/04/30 00:39:31;;;;;;;6.50;3.60;;;;;;;4.55;81.06;98304.28;5089588;28;20106;-72
2021/04/30 00:41:56;;;;;;;8.20;4.38;;;;;;;4.74;80.57;98314.56;5068540;28;20028;-72
2021/04/30 00:44:21;;;;;;;6.47;4.55;;;;;;;4.67;80.69;98339.56;5071916;28;20071;-72
2021/04/30 00:46:47;;;;;;;7.38;4.82;;;;;;;4.55;81.33;98337.28;5070358;28;20036;-72
2021/04/30 00:49:13;;;;;;;9.60;4.35;;;;;;;4.35;82.21;98338.75;5053501;28;20054;-72
2021/04/30 00:51:38;;;;;;;10.73;4.75;;;;;;;4.22;81.93;98335.78;5071484;28;20528;-72
2021/04/30 00:54:04;;;;;;;6.78;4.47;;;;;;;4.28;81.87;98327.06;5071900;28;20032;-72
2021/04/30 00:56:29;;;;;;;7.18;4.32;;;;;;;4.31;82.19;98348.13;5071445;28;20032;-72
2021/04/30 00:58:55;;;;;;;6.32;4.05;;;;;;;4.15;81.88;98332.97;5071460;28;20033;-74
2021/04/30 01:01:20;;;;;;;6.53;4.55;;;;;;;4.07;82.33;98336.50;5053302;28;20131;-72
2021/04/30 01:03:47;;;;;;;8.32;4.70;;;;;;;3.92;82.87;98332.88;5071755;28;20028;-73
2021/04/30 01:06:13;;;;;;;6.70;4.03;;;;;;;3.93;82.92;98347.94;5073478;28;20140;-72
2021/04/30 01:08:38;;;;;;;6.75;4.72;;;;;;;3.81;83.00;98338.63;5071328;28;20107;-72
2021/04/30 01:11:04;;;;;;;6.43;4.60;;;;;;;3.82;83.89;98351.81;5062603;28;20031;-72
2021/04/30 01:13:29;;;;;;;7.22;4.30;;;;;;;3.70;83.22;98332.63;5089615;28;20032;-73
2021/04/30 01:15:55;;;;;;;10.43;4.50;;;;;;;3.66;83.68;98333.13;5075615;28;20036;-73
2021/04/30 01:18:20;;;;;;;5.75;4.13;;;;;;;3.78;83.16;98325.59;5075042;28;20029;-72
2021/04/30 01:20:45;;;;;;;8.82;5.00;;;;;;;3.78;83.38;98353.16;5075183;28;20108;-73
2021/04/30 01:23:11;;;;;;;7.95;4.50;;;;;;;3.86;83.26;98355.81;5095557;28;20036;-72
2021/04/30 01:25:38;;;;;;;6.63;4.80;;;;;;;3.78;83.56;98345.16;5094948;28;20035;-72
2021/04/30 01:28:04;;;;;;;7.35;4.65;;;;;;;3.70;83.17;98350.53;5095351;28;20106;-72
2021/04/30 01:30:32;;;;;;;8.10;4.60;;;;;;;3.77;83.67;98353.31;5080930;28;20437;-74
2021/04/30 01:32:58;;;;;;;8.57;4.35;;;;;;;3.72;83.90;98361.84;5080902;28;20032;-72
2021/04/30 01:35:31;;;;;;;7.40;4.60;;;;;;;3.70;83.45;98375.44;5072377;28;20024;-72
2021/04/30 01:37:58;;;;;;;8.80;5.10;;;;;;;3.73;83.37;98359.03;5074349;28;20090;-73
2021/04/30 01:40:26;;;;;;;9.43;5.10;;;;;;;3.89;83.46;98368.84;5075084;28;20020;-72
2021/04/30 01:43:00;;;;;;;8.93;4.38;;;;;;;4.07;82.47;98362.47;5075218;28;20067;-73
2021/04/30 01:45:28;;;;;;;6.38;4.63;;;;;;;4.04;82.65;98360.13;5073394;28;20028;-72
2021/04/30 01:47:53;;;;;;;9.10;4.60;;;;;;;3.94;83.16;98369.19;5056896;28;20075;-73
2021/04/30 01:50:19;;;;;;;7.90;4.78;;;;;;;3.84;82.83;98357.00;5074663;28;20402;-73
2021/04/30 01:52:44;;;;;;;8.13;4.93;;;;;;;3.85;83.21;98366.69;5057113;28;20103;-73
2021/04/30 01:55:10;;;;;;;8.15;4.35;;;;;;;3.89;83.56;98365.34;5074711;28;20100;-72
2021/04/30 01:57:36;;;;;;;10.95;5.30;;;;;;;4.07;82.96;98371.31;5093533;28;20024;-73
2021/04/30 02:00:04;;;;;;;7.30;4.55;;;;;;;4.07;82.61;98357.94;5076718;28;20123;-72
2021/04/30 02:02:43;;;;;;;10.82;4.47;;;;;;;4.12;82.49;98347.53;5088492;28;20033;-72
2021/04/30 02:05:09;;;;;;;7.40;4.53;;;;;;;4.10;82.18;98349.53;5085012;28;20020;-73
2021/04/30 02:07:34;;;;;;;8.02;4.40;;;;;;;4.21;82.37;98368.91;5077090;28;20818;-73
2021/04/30 02:10:02;;;;;;;6.28;4.07;;;;;;;4.26;82.07;98363.88;5094874;28;20131;-72
2021/04/30 02:12:28;;;;;;;6.05;4.28;;;;;;;4.14;82.38;98350.88;5088219;28;20104;-73
2021/04/30 02:14:53;;;;;;;6.65;4.70;;;;;;;4.20;82.08;98369.94;5076667;28;20116;-72
2021/04/30 02:17:18;;;;;;;5.30;3.95;;;;;;;3.97;81.97;98343.09;5056146;28;20024;-72
2021/04/30 02:19:43;;;;;;;7.38;3.72;;;;;;;4.09;81.24;98349.75;5074343;28;20396;-72
2021/04/30 02:22:09;;;;;;;6.07;4.32;;;;;;;4.09;81.94;98365.81;5077798;28;20114;-72
2021/04/30 02:24:34;;;;;;;6.05;4.20;;;;;;;4.09;81.95;98363.94;5094600;28;20028;-72
2021/04/30 02:26:59;;;;;;;6.05;4.47;;;;;;;4.11;82.01;98379.81;5074240;28;20129;-72
2021/04/30 02:29:24;;;;;;;5.25;4.05;;;;;;;4.04;82.18;98379.69;5085557;28;20020;-72
2021/04/30 02:31:50;;;;;;;7.63;4.50;;;;;;;3.97;82.00;98373.34;5050339;28;20044;-72
2021/04/30 02:34:15;;;;;;;6.13;4.38;;;;;;;4.05;82.20;98386.72;5053118;28;20028;-72
2021/04/30 02:36:40;;;;;;;5.40;4.28;;;;;;;4.15;80.94;98381.16;5052622;28;20025;-72
2021/04/30 02:39:05;;;;;;;6.47;4.18;;;;;;;4.20;79.95;98369.94;5058702;28;20033;-73
2021/04/30 02:41:31;;;;;;;5.13;3.65;;;;;;;4.10;80.13;98367.47;5089458;28;20035;-72
2021/04/30 02:43:56;;;;;;;8.77;4.00;;;;;;;4.14;80.37;98379.50;5086779;28;20060;-73
2021/04/30 02:46:21;;;;;;;5.47;3.90;;;;;;;4.16;80.67;98386.31;5073982;28;20032;-72
2021/04/30 02:48:48;;;;;;;8.85;4.53;;;;;;;4.13;80.09;98361.75;5073983;28;20073;-72
2021/04/30 02:51:14;;;;;;;7.70;4.32;;;;;;;4.06;81.19;98356.28;5081998;28;20028;-72
2021/04/30 02:53:40;;;;;;;6.22;4.38;;;;;;;3.90;81.92;98367.00;5073891;28;20256;-72
2021/04/30 02:56:05;;;;;;;6.70;4.07;;;;;;;4.02;81.61;98373.66;5072340;28;20032;-72
2021/04/30 02:58:30;;;;;;;8.00;3.92;;;;;;;3.69;81.81;98348.81;5075492;28;20033;-73
2021/04/30 03:00:58;;;;;;;7.25;4.60;;;;;;;3.67;82.74;98354.38;5075686;28;20028;-72
2021/04/30 03:03:23;;;;;;;6.70;4.13;;;;;;;3.58;82.76;98354.53;5073623;28;20038;-72
2021/04/30 03:05:48;;;;;;;6.00;4.25;;;;;;;3.37;82.69;98352.41;5093650;28;20110;-73
2021/04/30 03:08:13;;;;;;;7.60;4.72;;;;;;;3.23;83.52;98353.91;5073068;28;20029;-73
2021/04/30 03:10:39;;;;;;;6.88;5.00;;;;;;;3.26;84.18;98366.94;5069075;28;20138;-73
2021/04/30 03:13:04;;;;;;;6.50;4.50;;;;;;;3.25;84.34;98374.13;5067334;28;20111;-72
2021/04/30 03:15:30;;;;;;;9.70;5.38;;;;;;;3.29;84.61;98378.13;5073233;28;20454;-72
2021/04/30 03:17:55;;;;;;;7.03;4.78;;;;;;;3.29;84.34;98375.47;5072967;28;20112;-72
2021/04/30 03:20:21;;;;;;;11.38;4.70;;;;;;;3.31;83.92;98379.81;5073240;28;20056;-73
2021/04/30 03:22:47;;;;;;;12.27;4.97;;;;;;;3.27;84.31;98364.13;5073969;28;20032;-74
2021/04/30 03:25:17;;;;;;;10.40;5.43;;;;;;;3.36;83.96;98366.78;5080522;28;20028;-74
2021/04/30 03:27:42;;;;;;;6.80;4.78;;;;;;;3.38;83.55;98367.44;5072916;28;20039;-72
2021/04/30 03:30:09;;;;;;;7.75;5.03;;;;;;;3.38;82.84;98365.63;5076824;28;20040;-72
2021/04/30 03:32:35;;;;;;;6.50;4.70;;;;;;;3.40;81.83;98357.41;5054441;28;20043;-72
2021/04/30 03:35:01;;;;;;;8.48;5.07;;;;;;;3.48;81.90;98360.06;5072905;28;20104;-72
2021/04/30 03:37:26;;;;;;;9.07;4.90;;;;;;;3.51;81.75;98349.03;5088553;28;20042;-72
2021/04/30 03:39:52;;;;;;;7.50;4.60;;;;;;;3.78;81.90;98373.75;5072482;28;20024;-73
2021/04/30 03:42:17;;;;;;;8.95;4.38;;;;;;;3.81;81.14;98376.91;5055042;28;20107;-72
2021/04/30 03:44:43;;;;;;;8.77;4.70;;;;;;;3.77;81.70;98356.84;5093042;28;20469;-72
2021/04/30 03:47:08;;;;;;;6.57;4.60;;;;;;;3.84;81.29;98378.41;5061183;28;20367;-72
2021/04/30 03:49:33;;;;;;;5.53;4.22;;;;;;;3.85;81.60;98369.34;5072268;28;20052;-73
2021/04/30 03:51:59;;;;;;;7.75;4.53;;;;;;;3.76;81.72;98363.19;5071067;28;20063;-72
2021/04/30 03:54:24;;;;;;;7.82;4.70;;;;;;;3.74;81.50;98371.38;5077389;28;20017;-72
2021/04/30 03:56:49;;;;;;;9.63;4.80;;;;;;;3.72;81.90;98346.66;5074898;28;20087;-72
2021/04/30 03:59:15;;;;;;;6.68;4.78;;;;;;;3.71;80.92;98328.09;5077493;28;20024;-72
2021/04/30 04:01:40;;;;;;;8.70;5.00;;;;;;;3.73;81.12;98351.00;5044892;28;20488;-75
2021/04/30 04:04:05;;;;;;;6.55;4.72;;;;;;;3.88;80.95;98374.41;5064523;28;20035;-72
2021/04/30 04:06:31;;;;;;;7.38;4.90;;;;;;;3.76;81.08;98340.97;5072907;28;20056;-72
2021/04/30 04:08:56;;;;;;;6.93;5.25;;;;;;;3.82;80.94;98359.00;5074503;28;20417;-73
2021/04/30 04:11:21;;;;;;;6.50;4.70;;;;;;;3.80;81.15;98352.97;5071690;28;20562;-73
2021/04/30 04:13:46;;;;;;;8.82;5.45;;;;;;;3.82;80.80;98367.03;5056420;28;20052;-71
2021/04/30 04:16:12;;;;;;;9.85;5.50;;;;;;;3.75;80.41;98356.19;5052923;28;20029;-71
2021/04/30 04:18:37;;;;;;;7.72;5.28;;;;;;;3.82;80.29;98353.66;5073454;28;20099;-71
2021/04/30 04:21:03;;;;;;;6.43;4.72;;;;;;;3.90;80.44;98365.19;5083001;28;20025;-71
2021/04/30 04:23:28;;;;;;;9.05;5.43;;;;;;;3.92;79.93;98362.31;5056275;28;20021;-71
2021/04/30 04:25:53;;;;;;;8.88;5.78;;;;;;;3.94;79.68;98355.78;5073596;28;20062;-71
2021/04/30 04:28:19;;;;;;;9.50;5.70;;;;;;;4.06;80.10;98363.44;5054366;28;20032;-71
2021/04/30 04:30:45;;;;;;;8.40;5.28;;;;;;;4.04;79.34;98350.25;5067506;28;20024;-71
2021/04/30 04:33:11;;;;;;;8.57;5.35;;;;;;;4.21;79.28;98367.06;5054615;28;20501;-73
2021/04/30 04:35:36;;;;;;;8.95;5.25;;;;;;;4.24;78.69;98369.41;5070027;28;20123;-70
2021/04/30 04:38:01;;;;;;;9.07;5.25;;;;;;;4.33;78.72;98351.47;5060437;28;20029;-71
2021/04/30 04:40:27;;;;;;;10.90;5.45;;;;;;;4.36;78.86;98359.16;5058047;28;20021;-71
2021/04/30 04:42:53;;;;;;;8.38;4.90;;;;;;;4.33;78.90;98359.50;5052242;28;20036;-71
2021/04/30 04:45:21;;;;;;;8.65;5.10;;;;;;;4.36;78.92;98359.97;5069620;28;20036;-71
2021/04/30 04:47:47;;;;;;;7.82;5.07;;;;;;;4.51;79.00;98383.38;5070217;28;20028;-73
2021/04/30 04:50:14;;;;;;;7.35;5.20;;;;;;;4.59;79.32;98380.63;5053845;28;20101;-71
2021/04/30 04:52:40;;;;;;;6.97;4.80;;;;;;;4.78;78.50;98377.50;5053317;28;20024;-73
2021/04/30 04:55:07;;;;;;;10.38;5.25;;;;;;;4.86;77.48;98359.72;5071063;28;20052;-73
2021/04/30 04:57:33;;;;;;;7.90;4.57;;;;;;;5.00;77.36;98362.47;5072227;28;20029;-70
2021/04/30 04:59:58;;;;;;;10.13;5.13;;;;;;;4.98;78.78;98369.84;5068304;28;20025;-70
2021/04/30 05:02:24;;;;;;;8.20;5.47;;;;;;;5.10;76.87;98378.28;5054060;28;20028;-70
2021/04/30 05:04:49;;;;;;;8.93;5.38;;;;;;;5.20;76.83;98364.66;5071004;28;20516;-70
2021/04/30 05:07:14;;;;;;;11.75;6.10;;;;;;;5.37;76.55;98384.13;5063027;28;20028;-70
2021/04/30 05:09:40;;;;;;;10.05;6.63;;;;;;;5.45;76.31;98387.59;5057027;28;20029;-70
2021/04/30 05:12:06;;;;;;;10.13;6.35;;;;;;;5.53;76.33;98381.31;5084486;28;20036;-70
2021/04/30 05:14:31;;;;;;;7.97;5.78;;;;;;;5.62;75.93;98392.78;5087508;28;20024;-70
2021/04/30 05:16:56;;;;;;;10.35;6.20;;;;;;;5.52;75.88;98384.16;5084708;28;20035;-70
2021/04/30 05:19:22;;;;;;;11.60;5.95;;;;;;;5.61;75.94;98383.09;5082943;28;20086;-71
2021/04/30 05:21:48;;;;;;;9.02;6.43;;;;;;;5.81;75.68;98378.84;5084118;28;20038;-71
2021/04/30 05:24:14;;;;;;;10.88;6.35;;;;;;;5.69;75.50;98377.66;5068363;28;20025;-71
2021/04/30 05:26:40;;;;;;;9.50;6.25;;;;;;;5.47;76.53;98380.16;5074762;28;20048;-71
2021/04/30 05:29:05;;;;;;;9.80;6.40;;;;;;;5.45;76.52;98384.91;5071605;28;20032;-71
2021/04/30 05:31:32;;;;;;;10.73;6.93;;;;;;;5.54;77.16;98400.94;5078657;28;20398;-66
2021/04/30 05:33:57;;;;;;;13.38;6.50;;;;;;;5.75;76.75;98393.00;5038874;28;20032;-69
2021/04/30 05:36:22;;;;;;;10.75;6.53;;;;;;;5.97;76.03;98395.84;5069914;28;20048;-70
2021/04/30 05:38:48;;;;;;;8.32;5.75;;;;;;;6.05;75.27;98390.38;5068176;28;20901;-75
2021/04/30 05:41:13;;;;;;;11.30;6.07;;;;;;;6.18;75.76;98395.09;5056208;28;20085;-74
2021/04/30 05:43:39;;;;;;;7.88;5.80;;;;;;;6.31;75.17;98380.03;5052549;28;20389;-74
2021/04/30 05:46:04;;;;;;;8.07;5.57;;;;;;;6.49;74.55;98370.72;5065028;28;20032;-74
2021/04/30 05:48:29;;;;;;;8.70;5.82;;;;;;;6.68;74.24;98366.59;5050735;28;20057;-74
2021/04/30 05:50:55;;;;;;;7.20;4.95;;;;;;;6.68;74.25;98367.47;5058635;28;20036;-68
2021/04/30 05:53:22;;;;;;;7.18;5.20;;;;;;;6.82;73.73;98379.19;5065825;28;20024;-70
2021/04/30 05:55:47;;;;;;;7.70;5.45;;;;;;;6.88;73.09;98375.72;5054072;28;20504;-71
2021/04/30 05:58:13;;;;;;;8.70;6.05;;;;;;;6.68;74.32;98366.59;5074010;28;20048;-71
2021/04/30 06:00:38;;;;;;;7.47;5.75;;;;;;;6.86;72.45;98358.13;5073833;28;20504;-71
2021/04/30 06:03:03;;;;;;;8.05;5.75;;;;;;;7.14;71.39;98371.66;5070716;28;20035;-71
2021/04/30 06:05:29;;;;;;;8.60;5.97;;;;;;;7.30;70.51;98365.19;5074346;28;20040;-71
2021/04/30 06:07:54;;;;;;;9.48;6.40;;;;;;;7.95;69.75;98363.19;5055398;28;20024;-71
2021/04/30 06:10:19;;;;;;;8.88;5.70;;;;;;;8.59;68.10;98352.16;5054931;28;20028;-71
2021/04/30 06:12:44;;;;;;;10.60;5.78;;;;;;;9.38;66.53;98345.28;5054860;28;20024;-71
2021/04/30 06:15:10;;;;;;;6.97;5.32;;;;;;;10.33;62.96;98339.56;5054372;28;20044;-72
2021/04/30 06:17:35;;;;;;;8.75;5.13;;;;;;;10.85;61.25;98340.38;5128448;22;20793;-70
2021/04/30 06:20:01;;;;;;;7.88;5.38;;;;;;;10.70;60.70;98336.06;5043401;28;20029;-72
2021/04/30 06:22:26;;;;;;;7.82;5.47;;;;;;;10.80;61.26;98334.78;5053756;28;20028;-72
2021/04/30 06:24:51;;;;;;;9.43;6.03;;;;;;;10.66;59.66;98332.16;5042075;28;20139;-72
2021/04/30 06:27:17;;;;;;;10.00;6.45;;;;;;;10.51;60.00;98326.19;5059865;28;20109;-72
2021/04/30 06:29:42;;;;;;;10.95;6.43;;;;;;;10.03;60.56;98340.00;5051811;28;20029;-72
2021/04/30 06:32:08;;;;;;;10.38;6.65;;;;;;;9.74;61.59;98325.94;5046425;28;20046;-71
2021/04/30 06:34:33;;;;;;;10.40;6.80;;;;;;;9.54;62.85;98315.16;5057311;28;20020;-71
2021/04/30 06:36:58;;;;;;;10.75;6.38;;;;;;;9.30;63.21;98316.63;5059965;28;20103;-71
2021/04/30 06:39:25;;;;;;;8.63;6.45;;;;;;;9.15;63.37;98322.22;5053853;28;20031;-71
2021/04/30 06:41:51;;;;;;;9.13;6.28;;;;;;;9.35;61.94;98316.84;5052891;28;20039;-73
2021/04/30 06:44:16;;;;;;;9.13;6.20;;;;;;;9.22;60.85;98316.78;5047837;28;20060;-72
2021/04/30 06:46:42;;;;;;;8.35;6.35;;;;;;;9.06;61.45;98318.03;5040764;28;20028;-72
2021/04/30 06:49:07;;;;;;;10.20;6.28;;;;;;;9.10;63.10;98323.88;5052075;28;20464;-72
2021/04/30 06:51:33;;;;;;;8.38;6.10;;;;;;;9.18;62.77;98329.06;5054370;28;20028;-72
2021/04/30 06:54:00;;;;;;;8.85;6.50;;;;;;;9.16;62.29;98314.94;5054692;28;20033;-72
2021/04/30 06:56:26;;;;;;;9.50;6.35;;;;;;;9.39;62.16;98330.75;5053781;28;20083;-71
2021/04/30 06:58:51;;;;;;;8.50;6.50;;;;;;;9.39;61.70;98339.66;5052541;28;20025;-71
2021/04/30 07:01:18;;;;;;;9.57;6.47;;;;;;;9.53;62.49;98342.38;5053859;28;20490;-70
2021/04/30 07:03:46;;;;;;;9.18;6.22;;;;;;;9.53;63.19;98343.19;5054398;28;20025;-70
2021/04/30 07:06:12;;;;;;;8.60;5.95;;;;;;;9.42;62.57;98336.53;5054445;28;20033;-70
2021/04/30 07:08:37;;;;;;;10.68;6.63;;;;;;;9.41;63.34;98342.16;5052781;28;20175;-70
2021/04/30 07:11:02;;;;;;;8.07;6.00;;;;;;;9.42;63.34;98338.41;5037660;28;20025;-70
2021/04/30 07:13:28;;;;;;;9.30;6.07;;;;;;;9.39;62.83;98336.13;5052058;28;20032;-69
2021/04/30 07:15:53;;;;;;;8.88;6.20;;;;;;;9.26;62.75;98331.56;5050871;28;20021;-70
2021/04/30 07:18:18;;;;;;;9.18;6.57;;;;;;;9.06;63.67;98328.00;5056695;28;20037;-70
2021/04/30 07:20:46;;;;;;;9.38;6.18;;;;;;;9.04;63.53;98320.13;5045034;28;20045;-70
2021/04/30 07:23:11;;;;;;;10.88;6.45;;;;;;;8.87;63.71;98319.66;5067133;28;20547;-70
2021/04/30 07:25:36;;;;;;;9.52;6.40;;;;;;;9.03;62.85;98337.34;5030528;28;20025;-70
2021/04/30 07:28:02;;;;;;;11.00;6.68;;;;;;;9.21;62.26;98325.94;5049897;28;20058;-70
2021/04/30 07:30:27;;;;;;;11.05;6.75;;;;;;;9.14;62.84;98319.69;5060687;28;20033;-70
2021/04/30 07:32:52;;;;;;;9.05;6.57;;;;;;;9.26;62.07;98326.16;5055500;28;20389;-71
2021/04/30 07:35:18;;;;;;;9.15;5.97;;;;;;;9.44;60.62;98314.75;5056303;28;20025;-74
2021/04/30 07:37:43;;;;;;;11.77;6.88;;;;;;;9.48;60.88;98320.56;5050976;28;20559;-68
2021/04/30 07:40:10;;;;;;;9.80;6.35;;;;;;;9.55;60.08;98303.31;5051847;28;20025;-71
2021/04/30 07:42:36;;;;;;;9.55;6.63;;;;;;;9.67;59.87;98317.03;5027318;28;20119;-72
2021/04/30 07:45:03;;;;;;;14.48;7.07;;;;;;;9.89;59.78;98320.31;5052593;28;20107;-71
2021/04/30 07:47:29;;;;;;;9.55;6.85;;;;;;;9.81;59.62;98326.75;5051639;28;20684;-71
2021/04/30 07:49:55;;;;;;;12.07;7.13;;;;;;;9.84;59.41;98309.31;5052364;28;20025;-72
2021/04/30 07:52:20;;;;;;;12.80;6.72;;;;;;;9.81;60.98;98304.31;5049763;28;20025;-72
2021/04/30 07:54:45;;;;;;;9.40;6.53;;;;;;;9.98;60.63;98310.09;5050739;28;20028;-71
2021/04/30 07:57:11;;;;;;;11.48;7.13;;;;;;;10.22;59.64;98295.91;5050836;28;20021;-73
2021/04/30 07:59:36;;;;;;;13.38;6.60;;;;;;;10.22;59.44;98286.97;5065955;28;20509;-72
2021/04/30 08:02:03;;;;;;;8.85;6.57;;;;;;;10.43;59.26;98302.09;5058119;28;20029;-71
2021/04/30 08:04:28;;;;;;;9.75;6.43;;;;;;;10.65;58.58;98310.72;5066446;28;20029;-71
2021/04/30 08:06:54;;;;;;;10.43;6.18;;;;;;;10.49;58.73;98322.88;5054615;28;20025;-71
2021/04/30 08:09:19;;;;;;;8.52;5.75;;;;;;;10.29;59.22;98309.41;5042585;28;20053;-71
2021/04/30 08:11:44;;;;;;;8.15;5.95;;;;;;;10.25;59.57;98322.50;5061039;28;20039;-72
2021/04/30 08:14:10;;;;;;;9.38;5.88;;;;;;;9.88;60.36;98324.88;5071073;28;20025;-72
2021/04/30 08:16:36;;;;;;;11.05;6.35;;;;;;;9.87;60.48;98327.78;5064285;28;20084;-72
2021/04/30 08:19:03;;;;;;;8.50;6.07;;;;;;;9.85;61.06;98332.56;5071667;28;20028;-71
2021/04/30 08:21:29;;;;;;;9.63;6.18;;;;;;;9.68;61.00;98334.06;5043985;28;20025;-72
2021/04/30 08:23:54;;;;;;;9.23;6.38;;;;;;;9.56;61.40;98334.69;5048928;28;20043;-72
2021/04/30 08:26:20;;;;;;;9.82;6.00;;;;;;;9.34;62.84;98328.66;5056718;28;20103;-72
2021/04/30 08:28:47;;;;;;;8.95;6.13;;;;;;;9.35;62.49;98327.63;5052209;28;20044;-72
2021/04/30 08:31:12;;;;;;;9.35;6.38;;;;;;;9.27;63.17;98341.31;5033488;28;20506;-70
2021/04/30 08:33:38;;;;;;;8.32;6.07;;;;;;;9.32;63.42;98348.78;5052491;28;20039;-71
2021/04/30 08:36:03;;;;;;;8.63;5.85;;;;;;;9.37;62.70;98360.63;5028459;28;20029;-72
2021/04/30 08:38:29;;;;;;;8.35;5.88;;;;;;;9.05;63.37;98351.47;5047028;28;20025;-72
2021/04/30 08:40:57;;;;;;;8.38;6.75;;;;;;;9.10;63.97;98353.56;5049019;28;20052;-72
2021/04/30 08:43:22;;;;;;;11.90;7.13;;;;;;;9.00;64.19;98335.88;5033123;28;20021;-71
2021/04/30 08:45:48;;;;;;;9.25;6.38;;;;;;;9.09;64.06;98330.28;5042027;28;20031;-71
2021/04/30 08:48:14;;;;;;;9.50;6.22;;;;;;;9.16;64.20;98329.25;5031461;28;20033;-71
2021/04/30 08:50:43;;;;;;;13.25;7.32;;;;;;;9.31;64.12;98325.53;5039848;28;20059;-71
2021/04/30 08:53:10;;;;;;;10.02;6.70;;;;;;;9.50;63.84;98323.88;5035337;28;20074;-72
2021/04/30 08:55:35;;;;;;;10.38;7.55;;;;;;;9.42;63.55;98323.03;5052946;28;20025;-71
2021/04/30 08:58:05;;;;;;;9.93;6.72;;;;;;;9.66;63.32;98313.47;5053057;28;20390;-71
2021/04/30 09:00:30;;;;;;;12.52;7.15;;;;;;;9.70;64.09;98295.00;5046068;28;20090;-71
2021/04/30 09:02:56;;;;;;;12.75;8.02;;;;;;;9.90;63.54;98307.63;5062073;28;20029;-71
2021/04/30 09:05:30;;;;;;;12.43;7.38;;;;;;;10.17;62.89;98322.75;5076107;28;20035;-71
2021/04/30 09:07:58;;;;;;;9.93;7.25;;;;;;;10.02;63.03;98330.25;5051075;28;20028;-71
2021/04/30 09:10:25;;;;;;;12.35;7.32;;;;;;;9.86;63.54;98328.84;5067233;28;20017;-71
2021/04/30 09:13:11;;;;;;;11.63;8.02;;;;;;;9.70;63.21;98343.63;5069703;28;20035;-71
2021/04/30 09:15:38;;;;;;;11.13;8.23;;;;;;;9.68;63.97;98344.88;5053546;28;20025;-71
2021/04/30 09:18:14;;;;;;;11.43;7.78;;;;;;;9.53;64.40;98331.56;5057896;28;20029;-71
2021/04/30 09:20:39;;;;;;;11.90;8.20;;;;;;;9.46;64.27;98322.63;5066553;28;20033;-69
2021/04/30 09:23:30;;;;;;;15.95;8.60;;;;;;;9.49;64.03;98322.22;5049023;28;20055;-70
2021/04/30 09:25:56;;;;;;;9.93;7.40;;;;;;;9.68;63.70;98315.16;5069678;28;20035;-72
2021/04/30 09:28:22;;;;;;;14.00;8.48;;;;;;;9.60;63.97;98321.59;5070982;28;20028;-72
2021/04/30 09:30:47;;;;;;;16.15;8.00;;;;;;;9.65;63.58;98329.91;5071970;28;20283;-72
2021/04/30 09:33:23;;;;;;;13.23;8.88;;;;;;;9.56;63.28;98347.34;5058027;28;20028;-72
2021/04/30 09:35:57;;;;;;;14.00;9.25;;;;;;;9.45;63.72;98348.78;5055562;28;20119;-71
2021/04/30 09:38:35;;;;;;;12.82;8.98;;;;;;;9.36;63.45;98344.66;5052393;28;20071;-72
2021/04/30 09:41:00;;;;;;;11.95;9.00;;;;;;;9.32;63.75;98346.91;5053389;28;20112;-72
2021/04/30 09:43:26;;;;;;;14.45;8.43;;;;;;;9.37;63.72;98347.13;5055130;28;20331;-72
2021/04/30 09:45:51;;;;;;;11.55;8.57;;;;;;;9.40;63.51;98346.72;5036579;28;20029;-71
2021/04/30 09:48:16;;;;;;;13.80;8.52;;;;;;;9.36;63.10;98353.59;5031882;28;20025;-70
2021/04/30 09:50:44;;;;;;;12.02;9.02;;;;;;;9.42;62.91;98344.66;5050191;28;20044;-71
2021/04/30 09:53:12;;;;;;;13.52;9.02;;;;;;;9.37;63.52;98324.72;5052813;28;20037;-71
2021/04/30 09:55:46;;;;;;;15.50;8.85;;;;;;;9.59;62.37;98311.84;5052395;28;20460;-71
2021/04/30 09:58:20;;;;;;;13.35;8.65;;;;;;;9.68;62.46;98318.66;5044732;28;20487;-71
2021/04/30 10:00:48;;;;;;;14.73;10.18;;;;;;;9.80;62.54;98327.81;5048941;28;20033;-71
2021/04/30 10:03:25;;;;;;;14.65;9.25;;;;;;;9.57;63.60;98312.03;5053842;28;20024;-71
2021/04/30 10:06:19;;;;;;;13.82;10.00;;;;;;;9.74;63.41;98325.94;5052671;28;20098;-71
2021/04/30 10:09:04;;;;;;;13.85;9.52;;;;;;;9.56;64.01;98328.44;5031106;28;20152;-71
2021/04/30 10:11:31;;;;;;;16.20;10.60;;;;;;;9.37;63.74;98330.09;5034536;28;20021;-71
2021/04/30 10:13:57;;;;;;;14.13;9.73;;;;;;;9.25;63.74;98343.41;5051714;28;20082;-71
2021/04/30 10:16:22;;;;;;;17.67;10.15;;;;;;;9.28;65.05;98339.47;5052636;28;20029;-71
2021/04/30 10:18:47;;;;;;;14.93;10.05;;;;;;;9.19;64.62;98330.72;5045334;28;20033;-72
2021/04/30 10:21:13;;;;;;;13.70;10.10;;;;;;;9.28;64.59;98329.50;5034908;28;20033;-71
2021/04/30 10:23:45;;;;;;;18.40;10.27;;;;;;;9.16;64.80;98325.72;5053142;28;20709;-71
2021/04/30 10:26:11;;;;;;;21.38;12.25;;;;;;;9.19;65.15;98319.91;5054155;28;20356;-71
2021/04/30 10:28:39;;;;;;;28.33;14.52;;;;;;;9.35;64.12;98332.19;5052461;28;20067;-71
2021/04/30 10:31:10;;;;;;;41.60;17.45;;;;;;;9.30;65.19;98329.25;5033015;28;20032;-71
2021/04/30 10:33:50;;;;;;;26.30;13.93;;;;;;;9.13;65.91;98334.25;5051719;28;20382;-72
2021/04/30 10:36:19;;;;;;;36.03;17.33;;;;;;;9.24;66.65;98333.63;5052442;28;20024;-71
2021/04/30 10:38:50;;;;;;;43.83;19.23;;;;;;;9.20;67.57;98324.28;5053123;28;20025;-71
2021/04/30 10:41:27;;;;;;;18.70;13.18;;;;;;;9.12;67.25;98328.03;5051826;28;20032;-71
2021/04/30 10:44:21;;;;;;;17.25;11.20;;;;;;;8.99;67.96;98325.31;5050417;28;20037;-72
2021/04/30 10:47:11;;;;;;;19.50;13.18;;;;;;;8.94;68.79;98320.53;5047364;28;20452;-71
2021/04/30 10:49:36;;;;;;;18.35;12.07;;;;;;;8.98;68.04;98346.03;5040129;28;20075;-72
2021/04/30 10:52:08;;;;;;;15.52;10.80;;;;;;;9.01;68.46;98342.09;5051737;28;20054;-72
2021/04/30 10:54:36;;;;;;;18.10;11.13;;;;;;;9.06;68.36;98339.63;5048033;28;20048;-71
2021/04/30 10:57:16;;;;;;;14.52;10.02;;;;;;;9.24;69.06;98357.09;5036328;28;20124;-71
2021/04/30 10:59:42;;;;;;;16.45;9.43;;;;;;;9.15;68.12;98359.16;5021689;28;20033;-71
2021/04/30 11:02:35;;;;;;;15.77;9.43;;;;;;;9.14;67.49;98370.97;5047958;28;20021;-71
2021/04/30 11:05:07;;;;;;;14.85;9.65;;;;;;;9.37;67.95;98367.91;5033141;28;20114;-71
2021/04/30 11:07:51;;;;;;;14.32;9.48;;;;;;;9.31;68.35;98361.47;5026573;28;20025;-71
2021/04/30 11:10:31;;;;;;;13.63;9.18;;;;;;;9.38;68.37;98373.13;5052474;28;20025;-71
2021/04/30 11:13:18;;;;;;;13.45;8.65;;;;;;;9.23;68.27;98372.47;5033561;28;20082;-71
2021/04/30 11:15:44;;;;;;;13.00;7.82;;;;;;;9.13;69.16;98377.44;5034617;28;20021;-71
2021/04/30 11:18:10;;;;;;;13.25;8.90;;;;;;;9.08;69.96;98380.72;5052126;28;20664;-71
2021/04/30 11:20:35;;;;;;;12.15;8.60;;;;;;;8.80;69.36;98372.75;5051399;28;20036;-72
2021/04/30 11:23:12;;;;;;;13.00;8.32;;;;;;;8.78;69.52;98372.97;5051636;28;20024;-70
2021/04/30 11:25:59;;;;;;;11.82;8.63;;;;;;;8.66;70.58;98385.38;5034531;28;20074;-72
2021/04/30 11:28:30;;;;;;;16.10;8.90;;;;;;;8.70;71.06;98381.25;5052791;28;20112;-71
2021/04/30 11:31:01;;;;;;;13.88;8.90;;;;;;;8.70;71.82;98386.66;5053574;28;20079;-71
2021/04/30 11:33:27;;;;;;;12.70;8.43;;;;;;;8.80;70.65;98388.94;5053696;28;20501;-70
2021/04/30 11:35:53;;;;;;;13.70;9.13;;;;;;;8.81;71.88;98374.44;5065968;28;20029;-71